createdAt,value
2019-05-12T00:02:00.815Z,7.39
2019-05-12T00:04:29.927Z,7.39
2019-05-12T00:06:58.995Z,7.38
2019-05-12T00:09:28.448Z,7.37
2019-05-12T00:11:59.127Z,7.36
2019-05-12T00:14:28.409Z,7.36
2019-05-12T00:16:58.097Z,7.32
2019-05-12T00:19:28.583Z,7.29
2019-05-12T00:21:58.740Z,7.26
2019-05-12T00:24:28.179Z,7.25
2019-05-12T00:26:59.315Z,7.24
2019-05-12T00:29:28.764Z,7.24
2019-05-12T00:31:58.122Z,7.23
2019-05-12T00:34:28.881Z,7.20
2019-05-12T00:36:58.202Z,7.19
2019-05-12T00:39:27.904Z,7.15
2019-05-12T00:41:58.627Z,7.16
2019-05-12T00:44:28.534Z,7.14
2019-05-12T00:46:57.836Z,7.11
2019-05-12T00:49:28.954Z,7.09
2019-05-12T00:51:58.732Z,7.07
2019-05-12T00:54:28.413Z,7.06
2019-05-12T00:56:58.590Z,7.04
2019-05-12T00:59:28.018Z,7.02
2019-05-12T01:01:58.626Z,7.01
2019-05-12T01:04:29.102Z,6.98
2019-05-12T01:06:58.417Z,6.97
2019-05-12T01:09:28.218Z,6.96
2019-05-12T01:11:58.769Z,6.95
2019-05-12T01:14:28.092Z,6.92
2019-05-12T01:16:57.858Z,6.90
2019-05-12T01:19:32.898Z,6.87
2019-05-12T01:22:01.955Z,6.87
2019-05-12T01:24:31.048Z,6.85
2019-05-12T01:27:00.111Z,6.83
2019-05-12T01:29:29.189Z,6.83
2019-05-12T01:32:04.470Z,6.82
2019-05-12T01:34:33.583Z,6.80
2019-05-12T01:37:20.430Z,6.78
2019-05-12T01:39:49.463Z,6.77
2019-05-12T01:42:18.556Z,6.75
2019-05-12T01:44:48.149Z,6.73
2019-05-12T01:47:18.794Z,6.72
2019-05-12T01:49:48.800Z,6.71
2019-05-12T01:52:17.986Z,6.69
2019-05-12T01:54:48.302Z,6.68
2019-05-12T01:57:18.800Z,6.67
2019-05-12T01:59:48.447Z,6.64
2019-05-12T02:02:18.016Z,6.64
2019-05-12T02:05:08.582Z,6.63
2019-05-12T02:07:58.404Z,6.61
2019-05-12T02:10:28.711Z,6.60
2019-05-12T02:12:59.306Z,6.57
2019-05-12T02:15:28.750Z,6.54
2019-05-12T02:17:58.968Z,6.53
2019-05-12T02:20:28.948Z,6.50
2019-05-12T02:22:58.604Z,6.47
2019-05-12T02:25:28.654Z,6.45
2019-05-12T02:27:58.599Z,6.44
2019-05-12T02:30:30.293Z,6.42
2019-05-12T02:32:59.681Z,6.41
2019-05-12T02:35:29.026Z,6.41
2019-05-12T02:37:58.104Z,6.38
2019-05-12T02:40:27.214Z,6.35
2019-05-12T02:42:56.324Z,6.34
2019-05-12T02:45:25.896Z,6.29
2019-05-12T02:47:55.152Z,6.27
2019-05-12T02:50:35.903Z,6.26
2019-05-12T02:53:05.862Z,6.22
2019-05-12T02:55:35.738Z,6.18
2019-05-12T02:58:06.202Z,6.16
2019-05-12T03:00:36.359Z,6.15
2019-05-12T03:03:08.413Z,6.12
2019-05-12T03:05:38.712Z,6.09
2019-05-12T03:08:07.758Z,6.08
2019-05-12T03:10:37.123Z,6.04
2019-05-12T03:13:06.195Z,6.01
2019-05-12T03:15:37.373Z,5.97
2019-05-12T03:18:07.005Z,5.95
2019-05-12T03:20:36.362Z,5.91
2019-05-12T03:23:06.427Z,5.90
2019-05-12T03:25:37.114Z,5.89
2019-05-12T03:28:08.718Z,5.87
2019-05-12T03:30:39.984Z,5.84
2019-05-12T03:33:10.743Z,5.81
2019-05-12T03:35:43.635Z,5.79
2019-05-12T03:38:09.660Z,5.76
2019-05-12T03:40:39.137Z,5.72
2019-05-12T03:43:08.348Z,5.69
2019-05-12T03:45:37.405Z,5.66
2019-05-12T03:48:06.663Z,5.62
2019-05-12T03:50:36.363Z,5.58
2019-05-12T03:53:10.056Z,5.54
2019-05-12T03:55:41.842Z,5.52
2019-05-12T03:58:07.574Z,5.50
2019-05-12T04:00:36.770Z,5.48
2019-05-12T04:03:06.049Z,5.46
2019-05-12T04:05:37.009Z,5.43
2019-05-12T04:08:06.758Z,5.39
2019-05-12T04:10:36.868Z,5.38
2019-05-12T04:13:06.422Z,5.36
2019-05-12T04:15:35.957Z,5.35
2019-05-12T04:18:06.475Z,5.33
2019-05-12T04:20:36.523Z,5.32
2019-05-12T04:23:06.818Z,5.32
2019-05-12T04:25:50.872Z,5.30
2019-05-12T04:28:07.007Z,5.27
2019-05-12T04:30:36.207Z,5.27
2019-05-12T04:33:05.912Z,5.25
2019-05-12T04:35:35.893Z,5.23
2019-05-12T04:38:05.586Z,5.22
2019-05-12T04:40:36.187Z,5.22
2019-05-12T04:43:06.601Z,5.20
2019-05-12T04:45:35.998Z,5.22
2019-05-12T04:48:06.064Z,5.21
2019-05-12T04:50:36.394Z,5.21
2019-05-12T04:53:06.730Z,5.22
2019-05-12T04:55:36.615Z,5.22
2019-05-12T04:58:06.349Z,5.25
2019-05-12T05:00:36.085Z,5.24
2019-05-12T05:03:05.949Z,5.28
2019-05-12T05:05:36.224Z,5.29
2019-05-12T05:08:05.748Z,5.30
2019-05-12T05:10:35.134Z,5.31
2019-05-12T05:13:05.563Z,5.33
2019-05-12T05:15:35.514Z,5.35
2019-05-12T05:18:06.771Z,5.38
2019-05-12T05:20:35.729Z,5.41
2019-05-12T05:23:04.913Z,5.43
2019-05-12T05:25:34.710Z,5.47
2019-05-12T05:28:04.333Z,5.50
2019-05-12T05:30:34.167Z,5.53
2019-05-12T05:33:05.073Z,5.56
2019-05-12T05:35:39.694Z,5.59
2019-05-12T05:38:06.039Z,5.61
2019-05-12T05:40:36.040Z,5.63
2019-05-12T05:43:12.401Z,5.66
2019-05-12T05:45:36.108Z,5.70
2019-05-12T05:48:09.717Z,5.73
2019-05-12T05:50:36.006Z,5.75
2019-05-12T05:53:09.170Z,5.78
2019-05-12T05:55:35.904Z,5.83
2019-05-12T05:58:10.071Z,5.85
2019-05-12T06:00:39.075Z,5.88
2019-05-12T06:03:17.049Z,5.92
2019-05-12T06:05:38.672Z,5.94
2019-05-12T06:08:18.669Z,5.98
2019-05-12T06:10:40.418Z,6.02
2019-05-12T06:13:09.711Z,6.06
2019-05-12T06:15:40.814Z,6.11
2019-05-12T06:18:09.589Z,6.15
2019-05-12T06:20:38.662Z,6.20
2019-05-12T06:23:07.766Z,6.23
2019-05-12T06:25:46.466Z,6.24
2019-05-12T06:28:08.943Z,6.28
2019-05-12T06:30:44.131Z,6.33
2019-05-12T06:33:09.024Z,6.39
2019-05-12T06:35:42.195Z,6.42
2019-05-12T06:38:08.963Z,6.48
2019-05-12T06:40:42.303Z,6.54
2019-05-12T06:43:08.855Z,6.60
2019-05-12T06:45:42.655Z,6.64
2019-05-12T06:48:08.744Z,6.71
2019-05-12T06:50:39.390Z,6.74
2019-05-12T06:53:08.676Z,6.80
2019-05-12T06:55:39.396Z,6.85
2019-05-12T06:58:08.721Z,6.89
2019-05-12T07:00:37.810Z,6.92
2019-05-12T07:03:06.883Z,6.97
2019-05-12T07:05:38.437Z,7.00
2019-05-12T07:08:06.754Z,7.04
2019-05-12T07:10:43.072Z,7.09
2019-05-12T07:13:06.642Z,7.14
2019-05-12T07:15:40.399Z,7.21
2019-05-12T07:18:10.388Z,7.26
2019-05-12T07:20:39.610Z,7.35
2019-05-12T07:23:08.631Z,7.39
2019-05-12T07:25:37.707Z,7.45
2019-05-12T07:28:08.104Z,7.52
2019-05-12T07:30:37.430Z,7.59
2019-05-12T07:33:06.498Z,7.68
2019-05-12T07:35:35.631Z,7.77
2019-05-12T07:38:05.133Z,7.83
2019-05-12T07:40:37.415Z,7.90
2019-05-12T07:43:09.851Z,7.94
2019-05-12T07:45:36.039Z,8.00
2019-05-12T07:48:10.083Z,8.05
2019-05-12T07:50:35.916Z,8.14
2019-05-12T07:53:05.015Z,8.21
2019-05-12T07:55:34.418Z,8.29
2019-05-12T07:58:12.637Z,8.38
2019-05-12T08:00:34.509Z,8.49
2019-05-12T08:03:16.286Z,8.57
2019-05-12T08:05:36.939Z,8.61
2019-05-12T08:08:09.377Z,8.68
2019-05-12T08:10:36.881Z,8.71
2019-05-12T08:13:05.938Z,8.74
2019-05-12T08:15:35.023Z,8.80
2019-05-12T08:18:07.858Z,8.85
2019-05-12T08:20:34.923Z,8.92
2019-05-12T08:23:10.257Z,9.04
2019-05-12T08:25:35.298Z,9.12
2019-05-12T08:30:56.026Z,9.27
2019-05-12T08:33:25.619Z,9.32
2019-05-12T08:35:55.366Z,9.37
2019-05-12T08:38:24.994Z,9.45
2019-05-12T08:40:54.529Z,9.54
2019-05-12T08:43:24.197Z,9.60
2019-05-12T08:45:53.621Z,9.71
2019-05-12T08:48:24.972Z,9.80
2019-05-12T08:50:54.562Z,9.88
2019-05-12T08:53:26.057Z,9.96
2019-05-12T08:55:54.736Z,10.01
2019-05-12T08:58:33.178Z,10.10
2019-05-12T09:00:57.528Z,10.22
2019-05-12T09:03:30.344Z,10.33
2019-05-12T09:05:57.342Z,10.40
2019-05-12T09:08:26.895Z,10.44
2019-05-12T09:10:56.053Z,10.50
2019-05-12T09:13:25.050Z,10.57
2019-05-12T09:15:54.304Z,10.65
2019-05-12T09:18:28.508Z,10.72
2019-05-12T09:20:55.714Z,10.79
2019-05-12T09:23:25.015Z,10.86
2019-05-12T09:25:57.267Z,10.95
2019-05-12T09:28:24.835Z,11.00
2019-05-12T09:30:54.479Z,11.03
2019-05-12T09:33:29.616Z,11.10
2019-05-12T09:35:54.409Z,11.18
2019-05-12T09:38:26.246Z,11.24
2019-05-12T09:41:00.840Z,11.33
2019-05-12T09:43:25.063Z,11.41
2019-05-12T09:45:56.468Z,11.46
2019-05-12T09:48:24.924Z,11.51
2019-05-12T09:51:00.255Z,11.56
2019-05-12T09:53:24.820Z,11.64
2019-05-12T09:55:54.026Z,11.75
2019-05-12T09:58:27.240Z,11.82
2019-05-12T10:00:54.446Z,11.90
2019-05-12T10:03:24.179Z,11.98
2019-05-12T10:05:53.530Z,12.09
2019-05-12T10:08:24.192Z,12.22
2019-05-12T10:10:53.688Z,12.33
2019-05-12T10:13:28.170Z,12.42
2019-05-12T10:15:53.751Z,12.48
2019-05-12T10:19:23.507Z,12.56
2019-05-12T10:22:05.290Z,12.65
2019-05-12T10:24:41.463Z,12.79
2019-05-12T10:27:05.162Z,12.91
2019-05-12T10:29:34.230Z,12.99
2019-05-12T10:32:03.981Z,13.01
2019-05-12T10:34:38.115Z,13.13
2019-05-12T10:37:04.252Z,13.24
2019-05-12T10:39:33.510Z,13.35
2019-05-12T10:42:02.669Z,13.50
2019-05-12T10:44:37.717Z,13.63
2019-05-12T10:47:04.573Z,13.74
2019-05-12T10:49:33.847Z,13.93
2019-05-12T10:52:03.848Z,13.99
2019-05-12T10:54:34.247Z,14.02
2019-05-12T10:57:04.990Z,14.07
2019-05-12T10:59:38.759Z,14.16
2019-05-12T11:02:05.071Z,14.26
2019-05-12T11:04:38.867Z,14.38
2019-05-12T11:07:04.934Z,14.53
2019-05-12T11:09:34.676Z,14.68
2019-05-12T11:12:03.860Z,14.78
2019-05-12T11:14:34.163Z,14.93
2019-05-12T11:17:07.541Z,15.01
2019-05-12T11:19:40.738Z,15.17
2019-05-12T11:22:06.547Z,15.33
2019-05-12T11:24:35.641Z,15.42
2019-05-12T11:27:04.738Z,15.48
2019-05-12T11:29:45.668Z,15.60
2019-05-12T11:32:04.647Z,15.80
2019-05-12T11:34:33.669Z,15.95
2019-05-12T11:37:03.403Z,16.25
2019-05-12T11:39:38.683Z,16.51
2019-05-12T11:42:04.184Z,16.70
2019-05-12T11:44:33.790Z,16.88
2019-05-12T11:47:03.666Z,17.05
2019-05-12T11:49:33.355Z,17.20
2019-05-12T11:52:07.478Z,17.33
2019-05-12T11:54:33.689Z,17.54
2019-05-12T11:57:02.780Z,17.80
2019-05-12T11:59:34.030Z,18.07
2019-05-12T12:02:02.573Z,18.30
2019-05-12T12:04:47.057Z,18.48
2019-05-12T12:07:16.645Z,18.67
2019-05-12T12:09:49.551Z,18.81
2019-05-12T12:12:16.601Z,18.94
2019-05-12T12:14:50.180Z,19.05
2019-05-12T12:17:16.523Z,19.09
2019-05-12T12:19:46.935Z,19.16
2019-05-12T12:22:20.509Z,19.21
2019-05-12T12:24:46.861Z,19.31
2019-05-12T12:27:15.916Z,19.35
2019-05-12T12:29:44.986Z,19.57
2019-05-12T12:32:18.454Z,19.83
2019-05-12T12:34:44.808Z,20.09
2019-05-12T12:37:18.806Z,20.27
2019-05-12T12:39:44.739Z,20.23
2019-05-12T12:42:14.059Z,20.21
2019-05-12T12:44:43.184Z,20.30
2019-05-12T12:47:13.901Z,20.24
2019-05-12T12:49:45.361Z,20.42
2019-05-12T12:52:14.012Z,20.46
2019-05-12T12:54:43.854Z,20.54
2019-05-12T12:57:13.591Z,20.56
2019-05-12T12:59:51.004Z,20.67
2019-05-12T13:02:14.298Z,20.71
2019-05-12T13:04:46.056Z,20.82
2019-05-12T13:07:14.521Z,20.99
2019-05-12T13:09:44.082Z,21.19
2019-05-12T13:12:17.009Z,21.30
2019-05-12T13:14:44.400Z,21.37
2019-05-12T13:17:14.269Z,21.35
2019-05-12T13:19:43.765Z,21.33
2019-05-12T13:22:14.971Z,21.35
2019-05-12T13:24:44.012Z,21.45
2019-05-12T13:27:14.212Z,21.52
2019-05-12T13:29:43.337Z,21.46
2019-05-12T13:32:13.775Z,21.55
2019-05-12T13:34:43.123Z,21.77
2019-05-12T13:37:15.573Z,22.01
2019-05-12T13:39:55.338Z,22.13
2019-05-12T13:42:13.921Z,22.18
2019-05-12T13:44:43.619Z,22.30
2019-05-12T13:47:14.031Z,22.36
2019-05-12T13:49:47.014Z,22.37
2019-05-12T13:52:14.010Z,22.34
2019-05-12T13:54:43.700Z,22.36
2019-05-12T13:57:13.386Z,22.39
2019-05-12T13:59:43.491Z,22.47
2019-05-12T14:02:13.944Z,22.46
2019-05-12T14:04:44.332Z,22.40
2019-05-12T14:07:17.872Z,22.32
2019-05-12T14:09:44.427Z,22.26
2019-05-12T14:12:13.679Z,22.11
2019-05-12T14:14:43.697Z,22.09
2019-05-12T14:17:14.820Z,22.09
2019-05-12T14:19:46.106Z,22.20
2019-05-12T14:22:21.328Z,22.20
2019-05-12T14:24:46.835Z,22.19
2019-05-12T14:27:24.306Z,22.26
2019-05-12T14:29:50.067Z,22.22
2019-05-12T14:32:19.277Z,22.27
2019-05-12T14:34:54.345Z,22.34
2019-05-12T14:37:19.214Z,22.29
2019-05-12T14:39:50.280Z,22.27
2019-05-12T14:42:19.117Z,22.30
2019-05-12T14:44:49.758Z,22.29
2019-05-12T14:47:24.078Z,22.17
2019-05-12T14:49:49.783Z,21.99
2019-05-12T14:52:18.789Z,21.84
2019-05-12T14:54:47.775Z,21.75
2019-05-12T14:57:16.865Z,21.70
2019-05-12T14:59:45.926Z,21.60
2019-05-12T15:02:19.441Z,21.43
2019-05-12T15:04:45.786Z,21.40
2019-05-12T15:07:15.387Z,21.35
2019-05-12T15:09:44.512Z,21.38
2019-05-12T15:12:14.135Z,21.39
2019-05-12T15:14:43.868Z,21.37
2019-05-12T15:17:22.223Z,21.30
2019-05-12T15:19:44.117Z,21.26
2019-05-12T15:22:14.707Z,21.25
2019-05-12T15:24:44.184Z,21.19
2019-05-12T15:27:13.563Z,21.05
2019-05-12T15:29:42.739Z,20.86
2019-05-12T15:32:11.847Z,20.67
2019-05-12T15:34:40.872Z,20.36
2019-05-12T15:37:09.950Z,20.14
2019-05-12T15:39:39.016Z,19.95
2019-05-12T15:42:08.111Z,19.77
2019-05-12T15:44:37.182Z,19.67
2019-05-12T15:47:06.245Z,19.53
2019-05-12T15:49:35.287Z,19.40
2019-05-12T15:52:04.360Z,19.20
2019-05-12T15:54:35.847Z,19.12
2019-05-12T15:57:04.307Z,19.05
2019-05-12T15:59:34.547Z,18.91
2019-05-12T16:02:12.391Z,18.75
2019-05-12T16:04:42.543Z,18.60
2019-05-12T16:07:05.478Z,18.46
2019-05-12T16:09:34.778Z,18.39
2019-05-12T16:12:09.485Z,18.33
2019-05-12T16:14:36.859Z,18.25
2019-05-12T16:17:06.624Z,18.18
2019-05-12T16:19:35.811Z,18.10
2019-05-12T16:22:04.894Z,17.96
2019-05-12T16:24:34.193Z,17.88
2019-05-12T16:27:03.727Z,17.77
2019-05-12T16:29:33.970Z,17.66
2019-05-12T16:32:04.525Z,17.56
2019-05-12T16:34:36.094Z,17.45
2019-05-12T16:37:05.306Z,17.36
2019-05-12T16:39:37.142Z,17.28
2019-05-12T16:42:09.188Z,17.24
2019-05-12T16:44:35.994Z,17.17
2019-05-12T16:47:05.042Z,17.08
2019-05-12T16:49:35.217Z,17.01
2019-05-12T16:52:04.992Z,16.93
2019-05-12T16:54:34.082Z,16.84
2019-05-12T16:57:08.455Z,16.74
2019-05-12T16:59:33.979Z,16.67
2019-05-12T17:02:05.514Z,16.58
2019-05-12T17:04:33.850Z,16.51
2019-05-12T17:07:03.008Z,16.39
2019-05-12T17:09:33.260Z,16.28
2019-05-12T17:12:04.917Z,16.18
2019-05-12T17:14:38.712Z,16.08
2019-05-12T17:17:04.048Z,15.96
2019-05-12T17:19:34.032Z,15.84
2019-05-12T17:22:04.013Z,15.77
2019-05-12T17:24:34.450Z,15.71
2019-05-12T17:27:03.889Z,15.65
2019-05-12T17:29:34.544Z,15.61
2019-05-12T17:32:04.246Z,15.49
2019-05-12T17:34:34.087Z,15.41
2019-05-12T17:37:03.989Z,15.32
2019-05-12T17:39:35.715Z,15.24
2019-05-12T17:42:04.140Z,15.12
2019-05-12T17:44:36.784Z,15.00
2019-05-12T17:47:03.956Z,14.92
2019-05-12T17:49:33.025Z,14.85
2019-05-12T17:52:12.305Z,14.80
2019-05-12T17:54:34.173Z,14.76
2019-05-12T17:57:03.939Z,14.71
2019-05-12T17:59:33.409Z,14.65
2019-05-12T18:02:05.850Z,14.61
2019-05-12T18:04:36.698Z,14.57
2019-05-12T18:07:30.450Z,14.53
2019-05-12T18:09:50.401Z,14.49
2019-05-12T18:12:26.872Z,14.45
2019-05-12T18:14:52.676Z,14.40
2019-05-12T18:17:23.653Z,14.34
2019-05-12T18:19:59.031Z,14.28
2019-05-12T18:22:23.641Z,14.24
2019-05-12T18:24:54.311Z,14.18
2019-05-12T18:27:23.346Z,14.11
2019-05-12T18:29:53.607Z,14.04
2019-05-12T18:32:24.371Z,13.95
2019-05-12T18:34:53.982Z,13.89
2019-05-12T18:37:24.061Z,13.82
2019-05-12T18:39:53.591Z,13.78
2019-05-12T18:42:24.579Z,13.72
2019-05-12T18:44:54.612Z,13.66
2019-05-12T18:47:32.008Z,13.58
2019-05-12T18:49:54.482Z,13.53
2019-05-12T18:52:23.759Z,13.48
2019-05-12T18:54:57.004Z,13.43
2019-05-12T18:57:23.954Z,13.37
2019-05-12T18:59:57.143Z,13.34
2019-05-12T19:02:28.328Z,13.28
2019-05-12T19:04:54.694Z,13.24
2019-05-12T19:07:38.927Z,13.19
2019-05-12T19:09:54.594Z,13.14
2019-05-12T19:12:31.892Z,13.08
2019-05-12T19:14:54.793Z,13.03
2019-05-12T19:17:24.210Z,13.00
2019-05-12T19:19:59.628Z,12.94
2019-05-12T19:22:24.412Z,12.87
2019-05-12T19:24:56.753Z,12.79
2019-05-12T19:27:24.266Z,12.72
2019-05-12T19:29:54.549Z,12.67
2019-05-12T19:32:28.004Z,12.63
2019-05-12T19:34:54.706Z,12.58
2019-05-12T19:37:26.406Z,12.51
2019-05-12T19:39:54.633Z,12.46
2019-05-12T19:42:24.481Z,12.41
2019-05-12T19:44:56.605Z,12.34
2019-05-12T19:47:33.240Z,12.31
2019-05-12T19:49:59.472Z,12.24
2019-05-12T19:52:26.046Z,12.21
2019-05-12T19:54:55.241Z,12.15
2019-05-12T19:57:26.236Z,12.14
2019-05-12T19:59:55.945Z,12.10
2019-05-12T20:02:25.187Z,12.05
2019-05-12T20:04:56.552Z,12.01
2019-05-12T20:07:25.079Z,11.96
2019-05-12T20:09:58.671Z,11.92
2019-05-12T20:12:24.930Z,11.90
2019-05-12T20:14:56.735Z,11.86
2019-05-12T20:17:24.772Z,11.78
2019-05-12T20:19:54.136Z,11.72
2019-05-12T20:22:24.354Z,11.68
2019-05-12T20:24:53.830Z,11.64
2019-05-12T20:27:24.730Z,11.60
2019-05-12T20:29:54.132Z,11.57
2019-05-12T20:32:24.125Z,11.54
2019-05-12T20:34:55.418Z,11.49
2019-05-12T20:37:24.034Z,11.46
2019-05-12T20:40:00.108Z,11.39
2019-05-12T20:42:25.786Z,11.33
2019-05-12T20:44:57.805Z,11.31
2019-05-12T20:47:25.506Z,11.27
2019-05-12T20:49:54.567Z,11.23
2019-05-12T20:52:23.808Z,11.17
2019-05-12T20:54:57.756Z,11.10
2019-05-12T20:57:23.783Z,11.01
2019-05-12T20:59:52.851Z,10.93
2019-05-12T21:02:23.412Z,10.87
2019-05-12T21:05:00.450Z,10.80
2019-05-12T21:07:26.825Z,10.76
2019-05-12T21:09:54.063Z,10.72
2019-05-12T21:12:24.180Z,10.69
2019-05-12T21:14:57.425Z,10.66
2019-05-12T21:17:38.953Z,10.62
2019-05-12T21:19:58.879Z,10.58
2019-05-12T21:22:25.507Z,10.55
2019-05-12T21:24:54.579Z,10.51
2019-05-12T21:27:23.580Z,10.45
2019-05-12T21:29:54.098Z,10.40
2019-05-12T21:32:24.052Z,10.35
2019-05-12T21:34:57.943Z,10.30
2019-05-12T21:37:25.434Z,10.24
2019-05-12T21:39:54.551Z,10.21
2019-05-12T21:42:25.168Z,10.19
2019-05-12T21:44:54.215Z,10.14
2019-05-12T21:47:24.279Z,10.09
2019-05-12T21:49:57.759Z,10.05
2019-05-12T21:52:24.227Z,10.00
2019-05-12T21:54:55.429Z,9.96
2019-05-12T21:57:27.370Z,9.91
2019-05-12T21:59:55.664Z,9.88
2019-05-12T22:02:30.464Z,9.84
2019-05-12T22:04:56.042Z,9.79
2019-05-12T22:07:29.537Z,9.74
2019-05-12T22:09:55.966Z,9.70
2019-05-12T22:12:28.579Z,9.68
2019-05-12T22:14:55.813Z,9.66
2019-05-12T22:17:24.853Z,9.64
2019-05-12T22:19:53.829Z,9.62
2019-05-12T22:22:25.748Z,9.58
2019-05-12T22:24:53.828Z,9.54
2019-05-12T22:27:27.129Z,9.50
2019-05-12T22:29:54.078Z,9.47
2019-05-12T22:32:25.274Z,9.47
2019-05-12T22:34:54.425Z,9.41
2019-05-12T22:37:24.029Z,9.39
2019-05-12T22:39:53.534Z,9.39
2019-05-12T22:42:24.436Z,9.34
2019-05-12T22:45:01.443Z,9.31
2019-05-12T22:47:24.353Z,9.29
2019-05-12T22:49:56.986Z,9.24
2019-05-12T22:52:24.204Z,9.19
2019-05-12T22:54:53.721Z,9.15
2019-05-12T22:57:24.159Z,9.10
2019-05-12T22:59:53.366Z,9.06
2019-05-12T23:02:27.985Z,9.05
2019-05-12T23:04:55.111Z,8.99
2019-05-12T23:07:25.421Z,8.96
2019-05-12T23:09:54.814Z,8.94
2019-05-12T23:12:23.787Z,8.93
2019-05-12T23:15:02.152Z,8.89
2019-05-12T23:17:24.628Z,8.88
2019-05-12T23:19:55.775Z,8.85
2019-05-12T23:22:29.440Z,8.83
2019-05-12T23:24:55.432Z,8.79
2019-05-12T23:27:29.753Z,8.79
2019-05-12T23:29:55.188Z,8.77
2019-05-12T23:32:24.302Z,8.71
2019-05-12T23:34:58.387Z,8.70
2019-05-12T23:37:24.496Z,8.67
2019-05-12T23:39:53.845Z,8.62
2019-05-12T23:42:23.714Z,8.58
2019-05-12T23:44:52.902Z,8.51
2019-05-12T23:47:23.787Z,8.49
2019-05-12T23:49:53.165Z,8.47
2019-05-12T23:52:24.100Z,8.45
2019-05-12T23:54:53.257Z,8.39
2019-05-12T23:57:24.151Z,8.35
2019-05-12T23:59:53.115Z,8.30
